sensor_id;sensor_type;location;lat;lon;timestamp;P1;durP1;ratioP1;P2;durP2;ratioP2
28844;SDS011;15976;47.938;7.758;2023-02-12T00:01:37;25.77;;;13.55;;
28844;SDS011;15976;47.938;7.758;2023-02-12T00:04:04;27.83;;;14.13;;
28844;SDS011;15976;47.938;7.758;2023-02-12T00:06:31;27.85;;;13.20;;
28844;SDS011;15976;47.938;7.758;2023-02-12T00:08:59;32.03;;;15.38;;
28844;SDS011;15976;47.938;7.758;2023-02-12T00:11:27;30.88;;;15.98;;
28844;SDS011;15976;47.938;7.758;2023-02-12T00:13:55;34.35;;;16.52;;
28844;SDS011;15976;47.938;7.758;2023-02-12T00:16:24;31.55;;;15.60;;
28844;SDS011;15976;47.938;7.758;2023-02-12T00:18:53;33.95;;;16.17;;
28844;SDS011;15976;47.938;7.758;2023-02-12T00:21:21;31.52;;;16.45;;
28844;SDS011;15976;47.938;7.758;2023-02-12T00:23:50;34.13;;;14.82;;
28844;SDS011;15976;47.938;7.758;2023-02-12T00:26:18;30.45;;;16.08;;
28844;SDS011;15976;47.938;7.758;2023-02-12T00:28:49;31.58;;;15.68;;
28844;SDS011;15976;47.938;7.758;2023-02-12T00:31:18;26.23;;;14.07;;
28844;SDS011;15976;47.938;7.758;2023-02-12T00:33:48;31.00;;;14.77;;
28844;SDS011;15976;47.938;7.758;2023-02-12T00:36:17;32.00;;;16.35;;
28844;SDS011;15976;47.938;7.758;2023-02-12T00:38:53;33.65;;;16.17;;
28844;SDS011;15976;47.938;7.758;2023-02-12T00:41:23;35.10;;;16.40;;
28844;SDS011;15976;47.938;7.758;2023-02-12T00:43:51;27.23;;;14.55;;
28844;SDS011;15976;47.938;7.758;2023-02-12T00:46:18;26.50;;;14.48;;
28844;SDS011;15976;47.938;7.758;2023-02-12T00:48:46;28.92;;;14.20;;
28844;SDS011;15976;47.938;7.758;2023-02-12T00:51:13;27.40;;;13.32;;
28844;SDS011;15976;47.938;7.758;2023-02-12T00:53:40;27.45;;;13.50;;
28844;SDS011;15976;47.938;7.758;2023-02-12T00:56:08;27.15;;;13.77;;
28844;SDS011;15976;47.938;7.758;2023-02-12T00:58:35;27.05;;;13.43;;
28844;SDS011;15976;47.938;7.758;2023-02-12T01:01:02;27.75;;;14.05;;
28844;SDS011;15976;47.938;7.758;2023-02-12T01:03:29;27.48;;;13.55;;
28844;SDS011;15976;47.938;7.758;2023-02-12T01:05:57;29.75;;;13.82;;
28844;SDS011;15976;47.938;7.758;2023-02-12T01:08:24;28.30;;;14.70;;
28844;SDS011;15976;47.938;7.758;2023-02-12T01:10:55;36.70;;;16.95;;
28844;SDS011;15976;47.938;7.758;2023-02-12T01:13:25;32.92;;;16.25;;
28844;SDS011;15976;47.938;7.758;2023-02-12T01:18:38;32.88;;;15.40;;
28844;SDS011;15976;47.938;7.758;2023-02-12T01:21:13;32.75;;;16.63;;
28844;SDS011;15976;47.938;7.758;2023-02-12T01:23:43;36.10;;;17.17;;
28844;SDS011;15976;47.938;7.758;2023-02-12T01:26:12;33.42;;;17.17;;
28844;SDS011;15976;47.938;7.758;2023-02-12T01:28:41;36.75;;;16.63;;
28844;SDS011;15976;47.938;7.758;2023-02-12T01:31:10;28.30;;;15.30;;
28844;SDS011;15976;47.938;7.758;2023-02-12T01:33:40;32.17;;;15.85;;
28844;SDS011;15976;47.938;7.758;2023-02-12T01:36:08;34.22;;;16.42;;
28844;SDS011;15976;47.938;7.758;2023-02-12T01:38:36;31.67;;;16.95;;
28844;SDS011;15976;47.938;7.758;2023-02-12T01:41:04;29.30;;;15.68;;
28844;SDS011;15976;47.938;7.758;2023-02-12T01:43:37;28.10;;;15.27;;
28844;SDS011;15976;47.938;7.758;2023-02-12T01:46:05;32.42;;;14.88;;
28844;SDS011;15976;47.938;7.758;2023-02-12T01:48:36;24.90;;;13.88;;
28844;SDS011;15976;47.938;7.758;2023-02-12T01:51:11;28.20;;;13.85;;
28844;SDS011;15976;47.938;7.758;2023-02-12T01:53:46;30.52;;;15.10;;
28844;SDS011;15976;47.938;7.758;2023-02-12T01:56:17;30.35;;;15.38;;
28844;SDS011;15976;47.938;7.758;2023-02-12T01:58:45;30.50;;;15.40;;
28844;SDS011;15976;47.938;7.758;2023-02-12T02:01:21;31.75;;;15.70;;
28844;SDS011;15976;47.938;7.758;2023-02-12T02:03:51;33.25;;;15.82;;
28844;SDS011;15976;47.938;7.758;2023-02-12T02:06:26;33.03;;;15.63;;
28844;SDS011;15976;47.938;7.758;2023-02-12T02:08:58;29.05;;;16.15;;
28844;SDS011;15976;47.938;7.758;2023-02-12T02:11:27;32.28;;;15.45;;
28844;SDS011;15976;47.938;7.758;2023-02-12T02:14:13;29.23;;;14.65;;
28844;SDS011;15976;47.938;7.758;2023-02-12T02:22:30;26.33;;;14.85;;
28844;SDS011;15976;47.938;7.758;2023-02-12T02:25:14;27.98;;;15.15;;
28844;SDS011;15976;47.938;7.758;2023-02-12T02:41:12;36.85;;;16.52;;
28844;SDS011;15976;47.938;7.758;2023-02-12T02:43:51;31.65;;;15.90;;
28844;SDS011;15976;47.938;7.758;2023-02-12T02:46:25;31.30;;;15.30;;
28844;SDS011;15976;47.938;7.758;2023-02-12T02:49:07;28.83;;;15.02;;
28844;SDS011;15976;47.938;7.758;2023-02-12T02:51:40;33.15;;;15.68;;
28844;SDS011;15976;47.938;7.758;2023-02-12T02:54:12;35.08;;;16.27;;
28844;SDS011;15976;47.938;7.758;2023-02-12T02:56:41;34.60;;;17.58;;
28844;SDS011;15976;47.938;7.758;2023-02-12T02:59:17;33.00;;;16.63;;
28844;SDS011;15976;47.938;7.758;2023-02-12T03:01:54;30.30;;;16.10;;
28844;SDS011;15976;47.938;7.758;2023-02-12T03:04:36;36.17;;;16.88;;
28844;SDS011;15976;47.938;7.758;2023-02-12T03:07:12;32.58;;;16.88;;
28844;SDS011;15976;47.938;7.758;2023-02-12T03:09:48;31.35;;;16.00;;
28844;SDS011;15976;47.938;7.758;2023-02-12T03:12:21;38.80;;;18.17;;
28844;SDS011;15976;47.938;7.758;2023-02-12T03:14:56;43.50;;;18.80;;
28844;SDS011;15976;47.938;7.758;2023-02-12T03:17:40;39.50;;;18.05;;
28844;SDS011;15976;47.938;7.758;2023-02-12T03:22:47;60.30;;;25.90;;
28844;SDS011;15976;47.938;7.758;2023-02-12T03:25:21;47.58;;;21.23;;
28844;SDS011;15976;47.938;7.758;2023-02-12T03:27:59;44.95;;;21.20;;
28844;SDS011;15976;47.938;7.758;2023-02-12T03:30:43;47.40;;;20.92;;
28844;SDS011;15976;47.938;7.758;2023-02-12T03:33:32;50.67;;;22.48;;
28844;SDS011;15976;47.938;7.758;2023-02-12T03:36:07;40.05;;;20.48;;
28844;SDS011;15976;47.938;7.758;2023-02-12T03:38:48;41.28;;;19.10;;
28844;SDS011;15976;47.938;7.758;2023-02-12T03:44:48;34.20;;;18.10;;
28844;SDS011;15976;47.938;7.758;2023-02-12T03:47:54;38.92;;;18.73;;
28844;SDS011;15976;47.938;7.758;2023-02-12T03:53:06;35.40;;;17.98;;
28844;SDS011;15976;47.938;7.758;2023-02-12T03:55:33;33.10;;;17.02;;
28844;SDS011;15976;47.938;7.758;2023-02-12T03:58:06;35.65;;;17.48;;
28844;SDS011;15976;47.938;7.758;2023-02-12T04:00:36;35.58;;;17.83;;
28844;SDS011;15976;47.938;7.758;2023-02-12T04:03:04;35.58;;;17.42;;
28844;SDS011;15976;47.938;7.758;2023-02-12T04:05:32;36.50;;;18.15;;
28844;SDS011;15976;47.938;7.758;2023-02-12T04:07:59;33.25;;;16.70;;
28844;SDS011;15976;47.938;7.758;2023-02-12T04:10:52;36.05;;;17.58;;
28844;SDS011;15976;47.938;7.758;2023-02-12T04:13:32;34.72;;;17.55;;
28844;SDS011;15976;47.938;7.758;2023-02-12T04:16:56;37.92;;;17.88;;
28844;SDS011;15976;47.938;7.758;2023-02-12T04:19:07;35.13;;;17.65;;
28844;SDS011;15976;47.938;7.758;2023-02-12T04:21:52;39.25;;;18.10;;
28844;SDS011;15976;47.938;7.758;2023-02-12T04:24:47;34.13;;;16.92;;
28844;SDS011;15976;47.938;7.758;2023-02-12T04:30:16;37.25;;;18.88;;
28844;SDS011;15976;47.938;7.758;2023-02-12T04:32:52;39.10;;;18.83;;
28844;SDS011;15976;47.938;7.758;2023-02-12T04:40:46;35.75;;;18.08;;
28844;SDS011;15976;47.938;7.758;2023-02-12T04:43:24;37.45;;;18.20;;
28844;SDS011;15976;47.938;7.758;2023-02-12T04:45:56;44.13;;;20.10;;
28844;SDS011;15976;47.938;7.758;2023-02-12T04:48:23;50.45;;;21.95;;
28844;SDS011;15976;47.938;7.758;2023-02-12T04:50:51;53.03;;;22.63;;
28844;SDS011;15976;47.938;7.758;2023-02-12T04:53:17;46.70;;;19.77;;
28844;SDS011;15976;47.938;7.758;2023-02-12T04:55:45;37.92;;;18.40;;
28844;SDS011;15976;47.938;7.758;2023-02-12T04:58:13;38.05;;;18.40;;
28844;SDS011;15976;47.938;7.758;2023-02-12T05:00:40;40.85;;;18.73;;
28844;SDS011;15976;47.938;7.758;2023-02-12T05:03:07;41.53;;;17.98;;
28844;SDS011;15976;47.938;7.758;2023-02-12T05:05:34;36.40;;;17.58;;
28844;SDS011;15976;47.938;7.758;2023-02-12T05:08:01;35.50;;;18.00;;
28844;SDS011;15976;47.938;7.758;2023-02-12T05:10:28;42.65;;;19.13;;
28844;SDS011;15976;47.938;7.758;2023-02-12T05:12:55;38.20;;;18.98;;
28844;SDS011;15976;47.938;7.758;2023-02-12T05:15:22;33.30;;;16.95;;
28844;SDS011;15976;47.938;7.758;2023-02-12T05:17:49;35.38;;;17.48;;
28844;SDS011;15976;47.938;7.758;2023-02-12T05:20:16;31.67;;;17.38;;
28844;SDS011;15976;47.938;7.758;2023-02-12T05:22:43;33.25;;;16.83;;
28844;SDS011;15976;47.938;7.758;2023-02-12T05:25:10;34.15;;;17.13;;
28844;SDS011;15976;47.938;7.758;2023-02-12T05:27:37;32.03;;;16.30;;
28844;SDS011;15976;47.938;7.758;2023-02-12T05:30:06;29.77;;;15.50;;
28844;SDS011;15976;47.938;7.758;2023-02-12T05:32:34;31.10;;;15.77;;
28844;SDS011;15976;47.938;7.758;2023-02-12T05:35:01;35.63;;;17.67;;
28844;SDS011;15976;47.938;7.758;2023-02-12T05:37:29;35.92;;;18.00;;
28844;SDS011;15976;47.938;7.758;2023-02-12T05:39:56;31.85;;;16.80;;
28844;SDS011;15976;47.938;7.758;2023-02-12T05:42:23;31.77;;;15.90;;
28844;SDS011;15976;47.938;7.758;2023-02-12T05:44:50;28.13;;;14.95;;
28844;SDS011;15976;47.938;7.758;2023-02-12T05:47:17;34.15;;;15.57;;
28844;SDS011;15976;47.938;7.758;2023-02-12T05:49:44;29.95;;;16.02;;
28844;SDS011;15976;47.938;7.758;2023-02-12T05:52:11;32.70;;;16.33;;
28844;SDS011;15976;47.938;7.758;2023-02-12T05:54:38;31.95;;;16.65;;
28844;SDS011;15976;47.938;7.758;2023-02-12T05:57:05;35.70;;;17.83;;
28844;SDS011;15976;47.938;7.758;2023-02-12T05:59:32;29.33;;;16.27;;
28844;SDS011;15976;47.938;7.758;2023-02-12T06:02:02;37.55;;;17.60;;
28844;SDS011;15976;47.938;7.758;2023-02-12T06:04:39;37.28;;;16.52;;
28844;SDS011;15976;47.938;7.758;2023-02-12T06:07:27;31.08;;;16.77;;
28844;SDS011;15976;47.938;7.758;2023-02-12T06:10:00;30.33;;;16.63;;
28844;SDS011;15976;47.938;7.758;2023-02-12T06:12:33;34.50;;;16.60;;
28844;SDS011;15976;47.938;7.758;2023-02-12T06:15:08;33.85;;;17.15;;
28844;SDS011;15976;47.938;7.758;2023-02-12T06:17:37;31.92;;;16.08;;
28844;SDS011;15976;47.938;7.758;2023-02-12T06:20:08;36.90;;;16.58;;
28844;SDS011;15976;47.938;7.758;2023-02-12T06:22:39;31.60;;;16.38;;
28844;SDS011;15976;47.938;7.758;2023-02-12T06:25:11;41.97;;;18.50;;
28844;SDS011;15976;47.938;7.758;2023-02-12T06:27:42;35.80;;;17.27;;
28844;SDS011;15976;47.938;7.758;2023-02-12T06:30:24;41.00;;;18.60;;
28844;SDS011;15976;47.938;7.758;2023-02-12T06:32:58;36.90;;;17.88;;
28844;SDS011;15976;47.938;7.758;2023-02-12T06:35:43;36.78;;;17.63;;
28844;SDS011;15976;47.938;7.758;2023-02-12T06:38:15;33.97;;;17.45;;
28844;SDS011;15976;47.938;7.758;2023-02-12T06:40:48;31.38;;;16.60;;
28844;SDS011;15976;47.938;7.758;2023-02-12T06:43:34;38.72;;;18.33;;
28844;SDS011;15976;47.938;7.758;2023-02-12T06:46:05;33.45;;;17.23;;
28844;SDS011;15976;47.938;7.758;2023-02-12T06:48:40;34.97;;;18.33;;
28844;SDS011;15976;47.938;7.758;2023-02-12T06:51:09;40.08;;;20.10;;
28844;SDS011;15976;47.938;7.758;2023-02-12T06:53:44;39.90;;;19.67;;
28844;SDS011;15976;47.938;7.758;2023-02-12T06:56:17;36.90;;;18.75;;
28844;SDS011;15976;47.938;7.758;2023-02-12T06:58:53;39.45;;;19.20;;
28844;SDS011;15976;47.938;7.758;2023-02-12T07:01:30;35.50;;;17.60;;
28844;SDS011;15976;47.938;7.758;2023-02-12T07:04:39;38.17;;;18.60;;
28844;SDS011;15976;47.938;7.758;2023-02-12T07:07:23;36.42;;;18.77;;
28844;SDS011;15976;47.938;7.758;2023-02-12T07:10:20;33.72;;;16.95;;
28844;SDS011;15976;47.938;7.758;2023-02-12T07:13:13;50.53;;;20.50;;
28844;SDS011;15976;47.938;7.758;2023-02-12T07:16:25;34.92;;;16.85;;
28844;SDS011;15976;47.938;7.758;2023-02-12T07:19:35;38.33;;;18.23;;
28844;SDS011;15976;47.938;7.758;2023-02-12T07:22:43;39.15;;;17.83;;
28844;SDS011;15976;47.938;7.758;2023-02-12T07:25:39;37.78;;;18.50;;
28844;SDS011;15976;47.938;7.758;2023-02-12T07:28:26;38.47;;;20.33;;
28844;SDS011;15976;47.938;7.758;2023-02-12T07:31:10;39.55;;;19.70;;
28844;SDS011;15976;47.938;7.758;2023-02-12T07:34:04;34.92;;;18.10;;
28844;SDS011;15976;47.938;7.758;2023-02-12T07:36:43;37.50;;;19.33;;
28844;SDS011;15976;47.938;7.758;2023-02-12T07:39:18;36.95;;;18.80;;
28844;SDS011;15976;47.938;7.758;2023-02-12T07:42:04;35.95;;;17.92;;
28844;SDS011;15976;47.938;7.758;2023-02-12T07:44:55;36.00;;;18.48;;
28844;SDS011;15976;47.938;7.758;2023-02-12T07:47:44;36.40;;;18.35;;
28844;SDS011;15976;47.938;7.758;2023-02-12T07:50:26;35.42;;;18.85;;
28844;SDS011;15976;47.938;7.758;2023-02-12T07:53:15;38.22;;;19.10;;
28844;SDS011;15976;47.938;7.758;2023-02-12T07:56:21;35.80;;;18.60;;
28844;SDS011;15976;47.938;7.758;2023-02-12T07:59:15;38.80;;;18.38;;
28844;SDS011;15976;47.938;7.758;2023-02-12T08:01:48;40.07;;;18.97;;
28844;SDS011;15976;47.938;7.758;2023-02-12T08:04:26;33.15;;;16.70;;
28844;SDS011;15976;47.938;7.758;2023-02-12T08:07:27;37.75;;;17.42;;
28844;SDS011;15976;47.938;7.758;2023-02-12T08:10:25;36.28;;;18.48;;
28844;SDS011;15976;47.938;7.758;2023-02-12T08:13:05;61.15;;;30.65;;
28844;SDS011;15976;47.938;7.758;2023-02-12T08:15:47;63.65;;;30.08;;
28844;SDS011;15976;47.938;7.758;2023-02-12T08:18:45;52.00;;;22.30;;
28844;SDS011;15976;47.938;7.758;2023-02-12T08:21:20;45.58;;;22.08;;
28844;SDS011;15976;47.938;7.758;2023-02-12T08:24:02;43.58;;;21.08;;
28844;SDS011;15976;47.938;7.758;2023-02-12T08:26:43;61.85;;;29.20;;
28844;SDS011;15976;47.938;7.758;2023-02-12T08:29:30;63.40;;;31.95;;
28844;SDS011;15976;47.938;7.758;2023-02-12T08:32:39;69.72;;;35.05;;
28844;SDS011;15976;47.938;7.758;2023-02-12T08:35:37;74.88;;;37.90;;
28844;SDS011;15976;47.938;7.758;2023-02-12T08:38:14;65.57;;;33.13;;
28844;SDS011;15976;47.938;7.758;2023-02-12T08:41:13;69.43;;;35.92;;
28844;SDS011;15976;47.938;7.758;2023-02-12T08:43:57;64.87;;;35.93;;
28844;SDS011;15976;47.938;7.758;2023-02-12T08:46:56;59.53;;;28.48;;
28844;SDS011;15976;47.938;7.758;2023-02-12T08:49:32;56.05;;;28.27;;
28844;SDS011;15976;47.938;7.758;2023-02-12T08:52:21;60.05;;;32.55;;
28844;SDS011;15976;47.938;7.758;2023-02-12T08:55:26;65.38;;;31.67;;
28844;SDS011;15976;47.938;7.758;2023-02-12T08:58:49;62.03;;;30.77;;
28844;SDS011;15976;47.938;7.758;2023-02-12T09:01:53;64.72;;;32.75;;
28844;SDS011;15976;47.938;7.758;2023-02-12T09:05:08;56.72;;;29.85;;
28844;SDS011;15976;47.938;7.758;2023-02-12T09:07:35;52.28;;;27.20;;
28844;SDS011;15976;47.938;7.758;2023-02-12T09:10:02;48.10;;;24.20;;
28844;SDS011;15976;47.938;7.758;2023-02-12T09:12:29;47.22;;;25.38;;
28844;SDS011;15976;47.938;7.758;2023-02-12T09:14:56;49.53;;;26.23;;
28844;SDS011;15976;47.938;7.758;2023-02-12T09:17:24;53.63;;;25.80;;
28844;SDS011;15976;47.938;7.758;2023-02-12T09:19:54;45.40;;;24.02;;
28844;SDS011;15976;47.938;7.758;2023-02-12T09:22:38;51.13;;;26.92;;
28844;SDS011;15976;47.938;7.758;2023-02-12T09:25:08;49.65;;;27.60;;
28844;SDS011;15976;47.938;7.758;2023-02-12T09:27:39;50.75;;;27.00;;
28844;SDS011;15976;47.938;7.758;2023-02-12T09:30:07;44.60;;;24.50;;
28844;SDS011;15976;47.938;7.758;2023-02-12T09:32:34;44.17;;;22.83;;
28844;SDS011;15976;47.938;7.758;2023-02-12T09:35:03;46.13;;;23.42;;
28844;SDS011;15976;47.938;7.758;2023-02-12T09:37:34;38.92;;;20.35;;
28844;SDS011;15976;47.938;7.758;2023-02-12T09:40:02;48.05;;;23.25;;
28844;SDS011;15976;47.938;7.758;2023-02-12T09:45:19;38.72;;;19.15;;
28844;SDS011;15976;47.938;7.758;2023-02-12T09:51:07;70.72;;;28.85;;
28844;SDS011;15976;47.938;7.758;2023-02-12T09:53:39;51.63;;;24.15;;
28844;SDS011;15976;47.938;7.758;2023-02-12T09:56:12;40.75;;;18.95;;
28844;SDS011;15976;47.938;7.758;2023-02-12T09:58:48;133.98;;;45.40;;
28844;SDS011;15976;47.938;7.758;2023-02-12T10:01:19;131.65;;;43.70;;
28844;SDS011;15976;47.938;7.758;2023-02-12T10:03:49;42.33;;;21.23;;
28844;SDS011;15976;47.938;7.758;2023-02-12T10:17:32;66.75;;;26.08;;
28844;SDS011;15976;47.938;7.758;2023-02-12T10:25:25;39.60;;;21.27;;
28844;SDS011;15976;47.938;7.758;2023-02-12T10:28:04;43.92;;;21.08;;
28844;SDS011;15976;47.938;7.758;2023-02-12T10:30:43;67.05;;;26.70;;
28844;SDS011;15976;47.938;7.758;2023-02-12T10:33:13;65.22;;;26.73;;
28844;SDS011;15976;47.938;7.758;2023-02-12T10:35:52;54.63;;;24.23;;
28844;SDS011;15976;47.938;7.758;2023-02-12T10:38:31;39.85;;;21.73;;
28844;SDS011;15976;47.938;7.758;2023-02-12T10:41:01;40.88;;;21.70;;
28844;SDS011;15976;47.938;7.758;2023-02-12T10:43:28;40.50;;;22.00;;
28844;SDS011;15976;47.938;7.758;2023-02-12T10:45:56;41.17;;;22.27;;
28844;SDS011;15976;47.938;7.758;2023-02-12T10:48:25;40.17;;;21.00;;
28844;SDS011;15976;47.938;7.758;2023-02-12T10:54:00;39.03;;;22.00;;
28844;SDS011;15976;47.938;7.758;2023-02-12T10:56:57;36.78;;;20.40;;
28844;SDS011;15976;47.938;7.758;2023-02-12T10:59:33;44.38;;;22.23;;
28844;SDS011;15976;47.938;7.758;2023-02-12T11:02:01;41.70;;;21.48;;
28844;SDS011;15976;47.938;7.758;2023-02-12T11:04:31;39.85;;;20.60;;
28844;SDS011;15976;47.938;7.758;2023-02-12T11:09:37;52.53;;;24.17;;
28844;SDS011;15976;47.938;7.758;2023-02-12T11:12:19;45.28;;;21.67;;
28844;SDS011;15976;47.938;7.758;2023-02-12T11:14:48;41.75;;;22.58;;
28844;SDS011;15976;47.938;7.758;2023-02-12T11:17:30;42.60;;;18.83;;
28844;SDS011;15976;47.938;7.758;2023-02-12T11:22:52;37.45;;;20.00;;
28844;SDS011;15976;47.938;7.758;2023-02-12T11:25:26;37.63;;;20.35;;
28844;SDS011;15976;47.938;7.758;2023-02-12T11:28:02;40.47;;;20.40;;
28844;SDS011;15976;47.938;7.758;2023-02-12T11:30:32;30.33;;;16.38;;
28844;SDS011;15976;47.938;7.758;2023-02-12T11:38:51;27.90;;;15.23;;
28844;SDS011;15976;47.938;7.758;2023-02-12T11:41:34;29.23;;;14.43;;
28844;SDS011;15976;47.938;7.758;2023-02-12T11:44:09;28.30;;;15.30;;
28844;SDS011;15976;47.938;7.758;2023-02-12T11:46:52;27.80;;;15.27;;
28844;SDS011;15976;47.938;7.758;2023-02-12T11:49:39;29.75;;;15.32;;
28844;SDS011;15976;47.938;7.758;2023-02-12T11:52:19;29.67;;;15.70;;
28844;SDS011;15976;47.938;7.758;2023-02-12T11:54:51;27.15;;;14.20;;
28844;SDS011;15976;47.938;7.758;2023-02-12T12:00:10;29.27;;;15.05;;
28844;SDS011;15976;47.938;7.758;2023-02-12T12:02:54;28.60;;;15.40;;
28844;SDS011;15976;47.938;7.758;2023-02-12T12:10:35;24.13;;;13.73;;
28844;SDS011;15976;47.938;7.758;2023-02-12T12:13:32;24.63;;;14.10;;
28844;SDS011;15976;47.938;7.758;2023-02-12T12:16:28;25.58;;;14.23;;
28844;SDS011;15976;47.938;7.758;2023-02-12T12:20:13;24.20;;;13.50;;
28844;SDS011;15976;47.938;7.758;2023-02-12T12:27:05;26.58;;;14.05;;
28844;SDS011;15976;47.938;7.758;2023-02-12T12:29:51;29.80;;;14.82;;
28844;SDS011;15976;47.938;7.758;2023-02-12T12:32:32;25.10;;;13.73;;
28844;SDS011;15976;47.938;7.758;2023-02-12T12:35:07;26.40;;;14.45;;
28844;SDS011;15976;47.938;7.758;2023-02-12T12:37:39;28.75;;;14.63;;
28844;SDS011;15976;47.938;7.758;2023-02-12T13:14:22;19.65;;;10.40;;
28844;SDS011;15976;47.938;7.758;2023-02-12T13:17:04;22.05;;;12.75;;
28844;SDS011;15976;47.938;7.758;2023-02-12T13:20:26;21.60;;;11.98;;
28844;SDS011;15976;47.938;7.758;2023-02-12T13:25:45;21.67;;;11.55;;
28844;SDS011;15976;47.938;7.758;2023-02-12T13:28:37;21.52;;;12.00;;
28844;SDS011;15976;47.938;7.758;2023-02-12T13:31:13;21.00;;;12.82;;
28844;SDS011;15976;47.938;7.758;2023-02-12T13:34:00;19.55;;;11.20;;
28844;SDS011;15976;47.938;7.758;2023-02-12T13:36:29;19.95;;;11.32;;
28844;SDS011;15976;47.938;7.758;2023-02-12T13:39:05;20.13;;;10.98;;
28844;SDS011;15976;47.938;7.758;2023-02-12T13:41:36;20.48;;;11.75;;
28844;SDS011;15976;47.938;7.758;2023-02-12T13:44:16;17.25;;;10.45;;
28844;SDS011;15976;47.938;7.758;2023-02-12T13:58:53;17.25;;;10.23;;
28844;SDS011;15976;47.938;7.758;2023-02-12T14:01:44;17.08;;;9.65;;
28844;SDS011;15976;47.938;7.758;2023-02-12T14:04:22;15.57;;;9.13;;
28844;SDS011;15976;47.938;7.758;2023-02-12T14:06:58;19.13;;;10.35;;
28844;SDS011;15976;47.938;7.758;2023-02-12T14:09:45;17.50;;;10.20;;
28844;SDS011;15976;47.938;7.758;2023-02-12T14:12:27;20.50;;;10.32;;
28844;SDS011;15976;47.938;7.758;2023-02-12T14:27:54;17.38;;;11.02;;
28844;SDS011;15976;47.938;7.758;2023-02-12T14:33:19;18.73;;;12.10;;
28844;SDS011;15976;47.938;7.758;2023-02-12T14:36:12;20.83;;;11.85;;
28844;SDS011;15976;47.938;7.758;2023-02-12T14:46:52;21.30;;;12.55;;
28844;SDS011;15976;47.938;7.758;2023-02-12T14:49:38;21.92;;;12.57;;
28844;SDS011;15976;47.938;7.758;2023-02-12T14:52:13;20.67;;;12.80;;
28844;SDS011;15976;47.938;7.758;2023-02-12T14:54:55;20.05;;;12.02;;
28844;SDS011;15976;47.938;7.758;2023-02-12T14:57:34;21.55;;;12.63;;
28844;SDS011;15976;47.938;7.758;2023-02-12T15:09:15;19.25;;;12.05;;
28844;SDS011;15976;47.938;7.758;2023-02-12T15:12:24;20.38;;;12.23;;
28844;SDS011;15976;47.938;7.758;2023-02-12T15:15:06;21.67;;;13.07;;
28844;SDS011;15976;47.938;7.758;2023-02-12T15:20:53;19.88;;;11.57;;
28844;SDS011;15976;47.938;7.758;2023-02-12T15:23:43;18.05;;;10.80;;
28844;SDS011;15976;47.938;7.758;2023-02-12T15:26:17;17.38;;;10.65;;
28844;SDS011;15976;47.938;7.758;2023-02-12T15:28:49;19.48;;;12.00;;
28844;SDS011;15976;47.938;7.758;2023-02-12T15:31:19;21.17;;;11.50;;
28844;SDS011;15976;47.938;7.758;2023-02-12T15:33:52;17.33;;;10.98;;
28844;SDS011;15976;47.938;7.758;2023-02-12T15:36:23;16.42;;;10.85;;
28844;SDS011;15976;47.938;7.758;2023-02-12T15:38:53;49.55;;;23.77;;
28844;SDS011;15976;47.938;7.758;2023-02-12T15:44:00;22.48;;;12.85;;
28844;SDS011;15976;47.938;7.758;2023-02-12T15:46:29;18.85;;;11.70;;
28844;SDS011;15976;47.938;7.758;2023-02-12T15:49:16;59.97;;;36.25;;
28844;SDS011;15976;47.938;7.758;2023-02-12T15:55:28;19.35;;;11.82;;
28844;SDS011;15976;47.938;7.758;2023-02-12T15:58:01;15.95;;;10.15;;
28844;SDS011;15976;47.938;7.758;2023-02-12T16:05:48;20.55;;;13.60;;
28844;SDS011;15976;47.938;7.758;2023-02-12T16:08:16;22.95;;;14.75;;
28844;SDS011;15976;47.938;7.758;2023-02-12T16:10:47;19.73;;;11.55;;
28844;SDS011;15976;47.938;7.758;2023-02-12T16:13:18;19.80;;;13.20;;
28844;SDS011;15976;47.938;7.758;2023-02-12T16:18:40;20.98;;;13.15;;
28844;SDS011;15976;47.938;7.758;2023-02-12T16:21:17;26.08;;;16.92;;
28844;SDS011;15976;47.938;7.758;2023-02-12T16:23:48;25.80;;;16.25;;
28844;SDS011;15976;47.938;7.758;2023-02-12T16:26:18;21.25;;;14.35;;
28844;SDS011;15976;47.938;7.758;2023-02-12T16:28:54;19.98;;;13.23;;
28844;SDS011;15976;47.938;7.758;2023-02-12T16:31:24;22.38;;;14.10;;
28844;SDS011;15976;47.938;7.758;2023-02-12T16:33:54;18.60;;;11.32;;
28844;SDS011;15976;47.938;7.758;2023-02-12T16:39:02;94.45;;;46.35;;
28844;SDS011;15976;47.938;7.758;2023-02-12T16:41:56;20.50;;;12.30;;
28844;SDS011;15976;47.938;7.758;2023-02-12T16:44:25;19.38;;;10.98;;
28844;SDS011;15976;47.938;7.758;2023-02-12T16:46:57;17.00;;;11.60;;
28844;SDS011;15976;47.938;7.758;2023-02-12T16:49:26;19.33;;;10.93;;
28844;SDS011;15976;47.938;7.758;2023-02-12T16:52:16;16.42;;;10.25;;
28844;SDS011;15976;47.938;7.758;2023-02-12T16:54:46;16.75;;;11.05;;
28844;SDS011;15976;47.938;7.758;2023-02-12T16:57:14;17.55;;;10.60;;
28844;SDS011;15976;47.938;7.758;2023-02-12T16:59:43;16.08;;;9.90;;
28844;SDS011;15976;47.938;7.758;2023-02-12T17:02:13;16.52;;;10.57;;
28844;SDS011;15976;47.938;7.758;2023-02-12T17:04:41;17.15;;;9.82;;
28844;SDS011;15976;47.938;7.758;2023-02-12T17:07:16;19.20;;;10.73;;
28844;SDS011;15976;47.938;7.758;2023-02-12T17:09:46;18.20;;;11.15;;
28844;SDS011;15976;47.938;7.758;2023-02-12T17:12:13;18.50;;;10.73;;
28844;SDS011;15976;47.938;7.758;2023-02-12T17:14:41;20.45;;;11.75;;
28844;SDS011;15976;47.938;7.758;2023-02-12T17:17:08;18.70;;;11.52;;
28844;SDS011;15976;47.938;7.758;2023-02-12T17:19:35;17.85;;;10.50;;
28844;SDS011;15976;47.938;7.758;2023-02-12T17:22:05;18.48;;;10.82;;
28844;SDS011;15976;47.938;7.758;2023-02-12T17:24:45;16.17;;;9.90;;
28844;SDS011;15976;47.938;7.758;2023-02-12T17:27:17;17.52;;;11.00;;
28844;SDS011;15976;47.938;7.758;2023-02-12T17:29:46;19.17;;;10.75;;
28844;SDS011;15976;47.938;7.758;2023-02-12T17:32:13;18.73;;;11.35;;
28844;SDS011;15976;47.938;7.758;2023-02-12T17:34:42;18.65;;;11.43;;
28844;SDS011;15976;47.938;7.758;2023-02-12T17:37:16;22.13;;;12.43;;
28844;SDS011;15976;47.938;7.758;2023-02-12T17:39:48;19.17;;;11.02;;
28844;SDS011;15976;47.938;7.758;2023-02-12T17:42:16;18.58;;;10.90;;
28844;SDS011;15976;47.938;7.758;2023-02-12T17:44:43;17.90;;;11.00;;
28844;SDS011;15976;47.938;7.758;2023-02-12T17:47:10;17.60;;;11.30;;
28844;SDS011;15976;47.938;7.758;2023-02-12T17:49:37;19.30;;;11.63;;
28844;SDS011;15976;47.938;7.758;2023-02-12T17:52:05;19.60;;;11.23;;
28844;SDS011;15976;47.938;7.758;2023-02-12T17:54:33;41.83;;;24.70;;
28844;SDS011;15976;47.938;7.758;2023-02-12T17:57:03;53.47;;;24.67;;
28844;SDS011;15976;47.938;7.758;2023-02-12T17:59:35;45.10;;;21.90;;
28844;SDS011;15976;47.938;7.758;2023-02-12T18:02:05;32.60;;;21.70;;
28844;SDS011;15976;47.938;7.758;2023-02-12T18:07:14;25.48;;;17.35;;
28844;SDS011;15976;47.938;7.758;2023-02-12T18:09:43;28.52;;;20.67;;
28844;SDS011;15976;47.938;7.758;2023-02-12T18:12:22;22.10;;;13.43;;
28844;SDS011;15976;47.938;7.758;2023-02-12T18:14:49;20.23;;;11.73;;
28844;SDS011;15976;47.938;7.758;2023-02-12T18:17:16;18.75;;;11.82;;
28844;SDS011;15976;47.938;7.758;2023-02-12T18:19:44;18.77;;;13.13;;
28844;SDS011;15976;47.938;7.758;2023-02-12T18:22:11;24.67;;;15.00;;
28844;SDS011;15976;47.938;7.758;2023-02-12T18:24:38;21.52;;;12.10;;